sensor_id;sensor_type;location;lat;lon;timestamp;pressure;altitude;pressure_sealevel;temperature;humidity
7180;BME280;3631;42.152;24.756;2022-11-02T00:01:52;99953.78;;;14.09;88.23
7180;BME280;3631;42.152;24.756;2022-11-02T00:04:20;99954.88;;;14.02;88.32
7180;BME280;3631;42.152;24.756;2022-11-02T00:06:47;99946.19;;;14.01;88.20
7180;BME280;3631;42.152;24.756;2022-11-02T00:09:14;99946.84;;;14.08;88.33
7180;BME280;3631;42.152;24.756;2022-11-02T00:11:41;99948.66;;;14.06;88.17
7180;BME280;3631;42.152;24.756;2022-11-02T00:14:08;99948.81;;;14.01;88.65
7180;BME280;3631;42.152;24.756;2022-11-02T00:16:36;99944.47;;;14.00;88.61
7180;BME280;3631;42.152;24.756;2022-11-02T00:19:05;99946.13;;;14.03;88.55
7180;BME280;3631;42.152;24.756;2022-11-02T00:21:35;99942.16;;;13.93;88.97
7180;BME280;3631;42.152;24.756;2022-11-02T00:24:03;99943.88;;;13.94;89.52
7180;BME280;3631;42.152;24.756;2022-11-02T00:26:32;99935.34;;;13.89;89.83
7180;BME280;3631;42.152;24.756;2022-11-02T00:29:00;99940.44;;;13.92;89.62
7180;BME280;3631;42.152;24.756;2022-11-02T00:31:27;99943.88;;;13.94;89.49
7180;BME280;3631;42.152;24.756;2022-11-02T00:33:55;99931.81;;;13.90;89.67
7180;BME280;3631;42.152;24.756;2022-11-02T00:36:22;99926.75;;;13.87;89.81
7180;BME280;3631;42.152;24.756;2022-11-02T00:38:51;99932.84;;;13.86;90.29
7180;BME280;3631;42.152;24.756;2022-11-02T00:41:19;99924.28;;;13.82;90.20
7180;BME280;3631;42.152;24.756;2022-11-02T00:43:46;99898.03;;;13.62;90.22
7180;BME280;3631;42.152;24.756;2022-11-02T00:46:13;99933.97;;;13.78;90.23
7180;BME280;3631;42.152;24.756;2022-11-02T00:48:40;99930.34;;;13.82;89.90
7180;BME280;3631;42.152;24.756;2022-11-02T00:51:07;99932.97;;;13.82;89.92
7180;BME280;3631;42.152;24.756;2022-11-02T00:53:34;99934.94;;;13.76;90.16
7180;BME280;3631;42.152;24.756;2022-11-02T00:56:02;99928.41;;;13.64;90.88
7180;BME280;3631;42.152;24.756;2022-11-02T00:58:29;99927.38;;;13.68;91.20
7180;BME280;3631;42.152;24.756;2022-11-02T01:00:56;99924.31;;;13.56;91.89
7180;BME280;3631;42.152;24.756;2022-11-02T01:03:23;99910.81;;;13.44;92.58
7180;BME280;3631;42.152;24.756;2022-11-02T01:05:50;99919.28;;;13.51;93.68
7180;BME280;3631;42.152;24.756;2022-11-02T01:08:17;99914.88;;;13.53;94.04
7180;BME280;3631;42.152;24.756;2022-11-02T01:10:44;99913.41;;;13.44;94.60
7180;BME280;3631;42.152;24.756;2022-11-02T01:13:12;99908.41;;;13.38;95.59
7180;BME280;3631;42.152;24.756;2022-11-02T01:15:39;99903.66;;;13.25;96.84
7180;BME280;3631;42.152;24.756;2022-11-02T01:18:07;99901.50;;;13.09;98.20
7180;BME280;3631;42.152;24.756;2022-11-02T01:20:34;99894.72;;;13.05;99.17
7180;BME280;3631;42.152;24.756;2022-11-02T01:23:01;99896.44;;;13.06;99.01
7180;BME280;3631;42.152;24.756;2022-11-02T01:25:28;99900.56;;;13.12;98.74
7180;BME280;3631;42.152;24.756;2022-11-02T01:27:56;99898.72;;;13.17;97.78
7180;BME280;3631;42.152;24.756;2022-11-02T01:30:24;99901.44;;;13.13;96.83
7180;BME280;3631;42.152;24.756;2022-11-02T01:32:51;99899.09;;;13.05;97.21
7180;BME280;3631;42.152;24.756;2022-11-02T01:35:18;99900.88;;;13.03;97.66
7180;BME280;3631;42.152;24.756;2022-11-02T01:37:45;99900.25;;;12.96;98.16
7180;BME280;3631;42.152;24.756;2022-11-02T01:40:12;99899.66;;;12.87;98.55
7180;BME280;3631;42.152;24.756;2022-11-02T01:42:39;99899.78;;;12.84;99.10
7180;BME280;3631;42.152;24.756;2022-11-02T01:45:08;99888.41;;;12.86;98.62
7180;BME280;3631;42.152;24.756;2022-11-02T01:47:39;99899.34;;;12.97;98.35
7180;BME280;3631;42.152;24.756;2022-11-02T01:50:10;99900.88;;;13.03;97.93
7180;BME280;3631;42.152;24.756;2022-11-02T01:52:39;99887.16;;;12.98;98.10
7180;BME280;3631;42.152;24.756;2022-11-02T01:55:09;99892.47;;;12.95;98.23
7180;BME280;3631;42.152;24.756;2022-11-02T01:57:39;99892.78;;;12.86;98.33
7180;BME280;3631;42.152;24.756;2022-11-02T02:00:09;99888.88;;;12.71;98.94
7180;BME280;3631;42.152;24.756;2022-11-02T02:02:42;99901.22;;;12.64;100.00
7180;BME280;3631;42.152;24.756;2022-11-02T02:05:12;99891.97;;;12.56;100.00
7180;BME280;3631;42.152;24.756;2022-11-02T02:07:40;99897.38;;;12.50;100.00
7180;BME280;3631;42.152;24.756;2022-11-02T02:10:08;99901.16;;;12.40;100.00
7180;BME280;3631;42.152;24.756;2022-11-02T02:12:36;99877.31;;;12.24;100.00
7180;BME280;3631;42.152;24.756;2022-11-02T02:15:06;99889.94;;;12.38;100.00
7180;BME280;3631;42.152;24.756;2022-11-02T02:17:41;99887.38;;;12.36;100.00
7180;BME280;3631;42.152;24.756;2022-11-02T02:20:19;99886.59;;;12.32;100.00
7180;BME280;3631;42.152;24.756;2022-11-02T02:23:19;99889.53;;;12.22;100.00
7180;BME280;3631;42.152;24.756;2022-11-02T02:28:59;99883.34;;;12.26;100.00
7180;BME280;3631;42.152;24.756;2022-11-02T02:31:32;99886.47;;;12.37;100.00
7180;BME280;3631;42.152;24.756;2022-11-02T02:34:07;99886.50;;;12.35;100.00
7180;BME280;3631;42.152;24.756;2022-11-02T02:36:40;99893.50;;;12.33;100.00
7180;BME280;3631;42.152;24.756;2022-11-02T02:39:15;99887.56;;;12.30;100.00
7180;BME280;3631;42.152;24.756;2022-11-02T02:41:46;99895.50;;;12.25;100.00
7180;BME280;3631;42.152;24.756;2022-11-02T02:44:22;99892.97;;;12.22;100.00
7180;BME280;3631;42.152;24.756;2022-11-02T02:46:52;99893.91;;;12.20;100.00
7180;BME280;3631;42.152;24.756;2022-11-02T02:49:28;99894.78;;;12.20;100.00
7180;BME280;3631;42.152;24.756;2022-11-02T02:51:58;99898.97;;;12.26;100.00
7180;BME280;3631;42.152;24.756;2022-11-02T02:54:30;99899.91;;;12.23;100.00
7180;BME280;3631;42.152;24.756;2022-11-02T02:57:02;99895.59;;;12.22;100.00
7180;BME280;3631;42.152;24.756;2022-11-02T02:59:36;99877.88;;;12.06;100.00
7180;BME280;3631;42.152;24.756;2022-11-02T03:02:05;99889.84;;;12.11;100.00
7180;BME280;3631;42.152;24.756;2022-11-02T03:04:34;99881.44;;;12.02;100.00
7180;BME280;3631;42.152;24.756;2022-11-02T03:07:01;99860.94;;;11.91;100.00
7180;BME280;3631;42.152;24.756;2022-11-02T03:09:33;99884.44;;;11.88;100.00
7180;BME280;3631;42.152;24.756;2022-11-02T03:12:14;99873.94;;;11.91;100.00
7180;BME280;3631;42.152;24.756;2022-11-02T03:14:55;99878.03;;;11.99;100.00
7180;BME280;3631;42.152;24.756;2022-11-02T03:17:27;99871.97;;;11.99;100.00
7180;BME280;3631;42.152;24.756;2022-11-02T03:20:01;99878.03;;;11.99;100.00
7180;BME280;3631;42.152;24.756;2022-11-02T03:22:33;99866.88;;;11.96;100.00
7180;BME280;3631;42.152;24.756;2022-11-02T03:25:12;99872.28;;;11.88;100.00
7180;BME280;3631;42.152;24.756;2022-11-02T03:27:48;99875.22;;;11.76;100.00
7180;BME280;3631;42.152;24.756;2022-11-02T03:30:19;99875.56;;;11.62;100.00
7180;BME280;3631;42.152;24.756;2022-11-02T03:32:52;99862.69;;;11.59;100.00
7180;BME280;3631;42.152;24.756;2022-11-02T03:35:24;99855.53;;;11.66;100.00
7180;BME280;3631;42.152;24.756;2022-11-02T03:37:58;99870.25;;;11.67;100.00
7180;BME280;3631;42.152;24.756;2022-11-02T03:40:29;99874.69;;;11.63;100.00
7180;BME280;3631;42.152;24.756;2022-11-02T03:42:59;99868.63;;;11.63;100.00
7180;BME280;3631;42.152;24.756;2022-11-02T03:45:35;99878.94;;;11.66;100.00
7180;BME280;3631;42.152;24.756;2022-11-02T03:48:06;99878.16;;;11.62;100.00
7180;BME280;3631;42.152;24.756;2022-11-02T03:50:36;99877.19;;;11.67;100.00
7180;BME280;3631;42.152;24.756;2022-11-02T03:53:06;99881.75;;;11.58;100.00
7180;BME280;3631;42.152;24.756;2022-11-02T03:55:38;99882.81;;;11.51;100.00
7180;BME280;3631;42.152;24.756;2022-11-02T03:58:08;99883.72;;;11.50;100.00
7180;BME280;3631;42.152;24.756;2022-11-02T04:00:37;99883.63;;;11.53;100.00
7180;BME280;3631;42.152;24.756;2022-11-02T04:03:11;99881.28;;;11.44;100.00
7180;BME280;3631;42.152;24.756;2022-11-02T04:05:38;99878.97;;;11.34;100.00
7180;BME280;3631;42.152;24.756;2022-11-02T04:08:06;99876.41;;;11.32;100.00
7180;BME280;3631;42.152;24.756;2022-11-02T04:10:49;99878.06;;;11.35;100.00
7180;BME280;3631;42.152;24.756;2022-11-02T04:13:34;99882.47;;;11.31;100.00
7180;BME280;3631;42.152;24.756;2022-11-02T04:16:21;99884.19;;;11.32;100.00
7180;BME280;3631;42.152;24.756;2022-11-02T04:18:48;99886.88;;;11.29;100.00
7180;BME280;3631;42.152;24.756;2022-11-02T04:21:32;99884.38;;;11.26;100.00
7180;BME280;3631;42.152;24.756;2022-11-02T04:23:59;99865.66;;;11.12;100.00
7180;BME280;3631;42.152;24.756;2022-11-02T04:26:43;99884.50;;;11.20;100.00
7180;BME280;3631;42.152;24.756;2022-11-02T04:29:10;99881.06;;;11.19;100.00
7180;BME280;3631;42.152;24.756;2022-11-02T04:31:39;99879.34;;;11.18;100.00
7180;BME280;3631;42.152;24.756;2022-11-02T04:34:06;99874.03;;;11.23;100.00
7180;BME280;3631;42.152;24.756;2022-11-02T04:36:32;99863.66;;;11.23;100.00
7180;BME280;3631;42.152;24.756;2022-11-02T04:38:59;99874.94;;;11.22;100.00
7180;BME280;3631;42.152;24.756;2022-11-02T04:41:25;99847.75;;;11.01;100.00
7180;BME280;3631;42.152;24.756;2022-11-02T04:44:07;99874.78;;;10.94;100.00
7180;BME280;3631;42.152;24.756;2022-11-02T04:46:35;99865.47;;;10.84;100.00
7180;BME280;3631;42.152;24.756;2022-11-02T04:49:04;99868.16;;;10.82;100.00
7180;BME280;3631;42.152;24.756;2022-11-02T04:51:32;99870.84;;;10.78;100.00
7180;BME280;3631;42.152;24.756;2022-11-02T04:53:59;99882.19;;;10.74;100.00
7180;BME280;3631;42.152;24.756;2022-11-02T04:56:27;99857.53;;;10.54;100.00
7180;BME280;3631;42.152;24.756;2022-11-02T04:58:56;99887.47;;;10.71;100.00
7180;BME280;3631;42.152;24.756;2022-11-02T05:01:25;99884.06;;;10.67;100.00
7180;BME280;3631;42.152;24.756;2022-11-02T05:03:53;99801.22;;;10.23;100.00
7180;BME280;3631;42.152;24.756;2022-11-02T05:06:23;99873.66;;;10.69;100.00
7180;BME280;3631;42.152;24.756;2022-11-02T05:08:50;99881.06;;;10.84;100.00
7180;BME280;3631;42.152;24.756;2022-11-02T05:11:17;99883.56;;;10.88;100.00
7180;BME280;3631;42.152;24.756;2022-11-02T05:13:44;99890.53;;;10.86;100.00
7180;BME280;3631;42.152;24.756;2022-11-02T05:16:12;99889.59;;;10.90;100.00
7180;BME280;3631;42.152;24.756;2022-11-02T05:18:39;99884.25;;;10.95;100.00
7180;BME280;3631;42.152;24.756;2022-11-02T05:21:08;99873.13;;;10.91;100.00
7180;BME280;3631;42.152;24.756;2022-11-02T05:23:37;99878.44;;;10.85;100.00
7180;BME280;3631;42.152;24.756;2022-11-02T05:26:05;99892.19;;;10.90;100.00
7180;BME280;3631;42.152;24.756;2022-11-02T05:28:33;99895.19;;;11.08;100.00
7180;BME280;3631;42.152;24.756;2022-11-02T05:31:00;99892.16;;;11.26;100.00
7180;BME280;3631;42.152;24.756;2022-11-02T05:33:29;99886.72;;;11.35;100.00
7180;BME280;3631;42.152;24.756;2022-11-02T05:35:56;99892.16;;;11.58;100.00
7180;BME280;3631;42.152;24.756;2022-11-02T05:38:24;99892.34;;;11.85;100.00
7180;BME280;3631;42.152;24.756;2022-11-02T05:40:54;99889.38;;;11.97;100.00
7180;BME280;3631;42.152;24.756;2022-11-02T05:43:21;99888.53;;;11.96;100.00
7180;BME280;3631;42.152;24.756;2022-11-02T05:45:52;99904.91;;;12.00;99.85
7180;BME280;3631;42.152;24.756;2022-11-02T05:48:20;99894.00;;;12.18;99.72
7180;BME280;3631;42.152;24.756;2022-11-02T05:50:47;99894.69;;;12.79;97.39
7180;BME280;3631;42.152;24.756;2022-11-02T05:53:15;99901.50;;;14.10;89.01
7180;BME280;3631;42.152;24.756;2022-11-02T05:55:42;99912.16;;;15.37;79.64
7180;BME280;3631;42.152;24.756;2022-11-02T05:58:10;99912.22;;;16.35;73.65
7180;BME280;3631;42.152;24.756;2022-11-02T06:00:37;99912.13;;;16.93;68.50
7180;BME280;3631;42.152;24.756;2022-11-02T06:03:05;99917.38;;;16.93;68.83
7180;BME280;3631;42.152;24.756;2022-11-02T06:05:32;99914.06;;;16.70;69.70
7180;BME280;3631;42.152;24.756;2022-11-02T06:07:59;99915.09;;;16.29;70.38
7180;BME280;3631;42.152;24.756;2022-11-02T06:10:27;99912.97;;;16.00;72.85
7180;BME280;3631;42.152;24.756;2022-11-02T06:12:55;99909.44;;;15.80;74.00
7180;BME280;3631;42.152;24.756;2022-11-02T06:15:23;99913.66;;;15.64;74.82
7180;BME280;3631;42.152;24.756;2022-11-02T06:17:50;99918.88;;;15.44;76.29
7180;BME280;3631;42.152;24.756;2022-11-02T06:20:17;99917.50;;;15.13;76.70
7180;BME280;3631;42.152;24.756;2022-11-02T06:22:45;99915.16;;;15.07;77.53
7180;BME280;3631;42.152;24.756;2022-11-02T06:25:12;99920.50;;;15.04;77.00
7180;BME280;3631;42.152;24.756;2022-11-02T06:27:40;99915.28;;;15.04;76.66
7180;BME280;3631;42.152;24.756;2022-11-02T06:30:08;99924.81;;;15.05;76.78
7180;BME280;3631;42.152;24.756;2022-11-02T06:32:36;99914.69;;;14.98;77.47
7180;BME280;3631;42.152;24.756;2022-11-02T06:35:04;99918.00;;;15.01;77.97
7180;BME280;3631;42.152;24.756;2022-11-02T06:37:34;99921.47;;;15.02;77.74
7180;BME280;3631;42.152;24.756;2022-11-02T06:40:01;99922.41;;;15.01;77.99
7180;BME280;3631;42.152;24.756;2022-11-02T06:42:28;99904.88;;;15.03;76.74
7180;BME280;3631;42.152;24.756;2022-11-02T06:44:55;99922.56;;;15.18;76.95
7180;BME280;3631;42.152;24.756;2022-11-02T06:47:29;99928.72;;;14.95;77.82
7180;BME280;3631;42.152;24.756;2022-11-02T06:49:58;99911.38;;;14.71;79.31
7180;BME280;3631;42.152;24.756;2022-11-02T06:52:25;99920.50;;;15.04;78.50
7180;BME280;3631;42.152;24.756;2022-11-02T06:54:52;99916.75;;;15.11;78.57
7180;BME280;3631;42.152;24.756;2022-11-02T06:57:19;99900.00;;;15.15;77.00
7180;BME280;3631;42.152;24.756;2022-11-02T06:59:47;99912.91;;;15.40;76.37
7180;BME280;3631;42.152;24.756;2022-11-02T07:02:14;99913.16;;;15.56;75.78
7180;BME280;3631;42.152;24.756;2022-11-02T07:04:41;99911.25;;;15.80;75.00
7180;BME280;3631;42.152;24.756;2022-11-02T07:07:09;99905.66;;;15.87;73.94
7180;BME280;3631;42.152;24.756;2022-11-02T07:09:36;99901.41;;;16.04;73.01
7180;BME280;3631;42.152;24.756;2022-11-02T07:12:04;99891.09;;;16.01;72.37
7180;BME280;3631;42.152;24.756;2022-11-02T07:14:31;99902.06;;;16.09;72.66
7180;BME280;3631;42.152;24.756;2022-11-02T07:16:58;99906.09;;;16.16;72.26
7180;BME280;3631;42.152;24.756;2022-11-02T07:19:25;99898.53;;;16.28;70.87
7180;BME280;3631;42.152;24.756;2022-11-02T07:21:52;99900.72;;;16.38;70.75
7180;BME280;3631;42.152;24.756;2022-11-02T07:24:20;99899.88;;;16.37;70.06
7180;BME280;3631;42.152;24.756;2022-11-02T07:26:47;99892.66;;;16.42;70.69
7180;BME280;3631;42.152;24.756;2022-11-02T07:29:15;99894.72;;;16.54;70.01
7180;BME280;3631;42.152;24.756;2022-11-02T07:31:43;99883.00;;;16.61;68.76
7180;BME280;3631;42.152;24.756;2022-11-02T07:34:10;99894.72;;;16.73;67.23
7180;BME280;3631;42.152;24.756;2022-11-02T07:36:38;99879.97;;;16.70;67.60
7180;BME280;3631;42.152;24.756;2022-11-02T07:39:05;99885.84;;;16.76;67.68
7180;BME280;3631;42.152;24.756;2022-11-02T07:41:34;99882.78;;;16.85;67.57
7180;BME280;3631;42.152;24.756;2022-11-02T07:44:01;99876.41;;;16.90;66.80
7180;BME280;3631;42.152;24.756;2022-11-02T07:46:28;99859.09;;;16.69;66.14
7180;BME280;3631;42.152;24.756;2022-11-02T07:48:55;99879.63;;;16.78;66.55
7180;BME280;3631;42.152;24.756;2022-11-02T07:51:22;99873.88;;;16.89;66.35
7180;BME280;3631;42.152;24.756;2022-11-02T07:53:48;99869.22;;;16.94;65.99
7180;BME280;3631;42.152;24.756;2022-11-02T07:56:15;99867.94;;;17.02;65.74
7180;BME280;3631;42.152;24.756;2022-11-02T07:58:44;99864.28;;;17.05;65.70
7180;BME280;3631;42.152;24.756;2022-11-02T08:01:11;99861.38;;;17.11;64.76
7180;BME280;3631;42.152;24.756;2022-11-02T08:03:38;99853.72;;;17.06;66.15
7180;BME280;3631;42.152;24.756;2022-11-02T08:06:05;99858.44;;;17.17;64.10
7180;BME280;3631;42.152;24.756;2022-11-02T08:08:32;99852.91;;;17.23;63.96
7180;BME280;3631;42.152;24.756;2022-11-02T08:11:03;99837.84;;;17.10;64.36
7180;BME280;3631;42.152;24.756;2022-11-02T08:13:31;99846.09;;;17.19;66.05
7180;BME280;3631;42.152;24.756;2022-11-02T08:15:59;99841.94;;;17.32;65.94
7180;BME280;3631;42.152;24.756;2022-11-02T08:18:27;99843.06;;;17.44;64.43
7180;BME280;3631;42.152;24.756;2022-11-02T08:20:55;99814.28;;;17.42;63.29
7180;BME280;3631;42.152;24.756;2022-11-02T08:23:23;99833.03;;;17.69;62.30
7180;BME280;3631;42.152;24.756;2022-11-02T08:25:52;99834.16;;;17.81;62.45
7180;BME280;3631;42.152;24.756;2022-11-02T08:28:21;99830.19;;;17.90;61.46
7180;BME280;3631;42.152;24.756;2022-11-02T08:30:48;99826.13;;;18.00;60.89
7180;BME280;3631;42.152;24.756;2022-11-02T08:33:17;99826.06;;;18.01;60.46
7180;BME280;3631;42.152;24.756;2022-11-02T08:35:45;99816.13;;;18.06;60.57
7180;BME280;3631;42.152;24.756;2022-11-02T08:38:13;99821.84;;;18.14;60.31
7180;BME280;3631;42.152;24.756;2022-11-02T08:40:40;99803.44;;;18.14;59.73
7180;BME280;3631;42.152;24.756;2022-11-02T08:43:08;99816.22;;;18.21;59.45
7180;BME280;3631;42.152;24.756;2022-11-02T08:45:37;99797.22;;;18.31;60.02
7180;BME280;3631;42.152;24.756;2022-11-02T08:48:05;99784.69;;;18.21;59.85
7180;BME280;3631;42.152;24.756;2022-11-02T08:50:34;99806.22;;;18.43;58.58
7180;BME280;3631;42.152;24.756;2022-11-02T08:53:01;99796.94;;;18.51;58.16
7180;BME280;3631;42.152;24.756;2022-11-02T08:55:29;99798.41;;;18.57;57.63
7180;BME280;3631;42.152;24.756;2022-11-02T08:57:57;99803.91;;;18.68;56.93
7180;BME280;3631;42.152;24.756;2022-11-02T09:00:25;99799.66;;;18.81;57.41
7180;BME280;3631;42.152;24.756;2022-11-02T09:03:00;99788.00;;;18.85;56.21
7180;BME280;3631;42.152;24.756;2022-11-02T09:05:28;99785.03;;;18.92;56.51
7180;BME280;3631;42.152;24.756;2022-11-02T09:07:58;99783.53;;;19.02;56.15
7180;BME280;3631;42.152;24.756;2022-11-02T09:10:26;99781.69;;;19.04;56.04
7180;BME280;3631;42.152;24.756;2022-11-02T09:12:53;99778.41;;;19.14;56.12
7180;BME280;3631;42.152;24.756;2022-11-02T09:15:20;99772.31;;;19.28;54.70
7180;BME280;3631;42.152;24.756;2022-11-02T09:17:48;99774.94;;;19.42;53.97
7180;BME280;3631;42.152;24.756;2022-11-02T09:20:16;99768.56;;;19.46;54.46
7180;BME280;3631;42.152;24.756;2022-11-02T09:22:43;99758.63;;;19.51;53.68
7180;BME280;3631;42.152;24.756;2022-11-02T09:25:12;99757.75;;;19.65;53.96
7180;BME280;3631;42.152;24.756;2022-11-02T09:27:39;99750.50;;;19.83;52.54
7180;BME280;3631;42.152;24.756;2022-11-02T09:30:07;99748.22;;;19.91;51.85
7180;BME280;3631;42.152;24.756;2022-11-02T09:32:35;99745.09;;;19.99;51.69
7180;BME280;3631;42.152;24.756;2022-11-02T09:35:05;99736.31;;;20.12;51.41
7180;BME280;3631;42.152;24.756;2022-11-02T09:37:32;99737.31;;;20.24;51.27
7180;BME280;3631;42.152;24.756;2022-11-02T09:39:59;99730.50;;;20.34;50.68
7180;BME280;3631;42.152;24.756;2022-11-02T09:42:33;99726.38;;;20.57;49.54
7180;BME280;3631;42.152;24.756;2022-11-02T09:45:04;99727.25;;;20.70;49.06
7180;BME280;3631;42.152;24.756;2022-11-02T09:47:38;99724.44;;;20.86;48.67
7180;BME280;3631;42.152;24.756;2022-11-02T09:50:13;99723.78;;;20.95;48.57
7180;BME280;3631;42.152;24.756;2022-11-02T09:52:42;99713.44;;;21.05;48.05
7180;BME280;3631;42.152;24.756;2022-11-02T09:55:16;99709.03;;;21.18;47.59
7180;BME280;3631;42.152;24.756;2022-11-02T09:57:49;99710.63;;;21.33;47.21
7180;BME280;3631;42.152;24.756;2022-11-02T10:00:19;99712.47;;;21.56;46.30
7180;BME280;3631;42.152;24.756;2022-11-02T10:02:52;99692.63;;;21.63;45.49
7180;BME280;3631;42.152;24.756;2022-11-02T10:05:33;99708.94;;;21.81;45.53
7180;BME280;3631;42.152;24.756;2022-11-02T10:08:14;99681.66;;;21.81;45.68
7180;BME280;3631;42.152;24.756;2022-11-02T10:10:52;99695.03;;;22.03;45.36
7180;BME280;3631;42.152;24.756;2022-11-02T10:13:33;99687.09;;;22.03;45.55
7180;BME280;3631;42.152;24.756;2022-11-02T10:16:06;99686.72;;;22.20;45.06
7180;BME280;3631;42.152;24.756;2022-11-02T10:18:35;99680.13;;;22.26;44.57
7180;BME280;3631;42.152;24.756;2022-11-02T10:21:06;99678.75;;;22.44;43.98
7180;BME280;3631;42.152;24.756;2022-11-02T10:23:36;99679.66;;;22.56;43.73
7180;BME280;3631;42.152;24.756;2022-11-02T10:26:07;99646.66;;;22.49;43.77
7180;BME280;3631;42.152;24.756;2022-11-02T10:28:42;99672.59;;;22.67;43.55
7180;BME280;3631;42.152;24.756;2022-11-02T10:31:20;99658.97;;;22.72;43.06
7180;BME280;3631;42.152;24.756;2022-11-02T10:33:49;99654.97;;;22.79;42.91
7180;BME280;3631;42.152;24.756;2022-11-02T10:36:30;99651.22;;;23.04;42.31
7180;BME280;3631;42.152;24.756;2022-11-02T10:39:08;99645.69;;;23.18;42.26
7180;BME280;3631;42.152;24.756;2022-11-02T10:41:51;99646.78;;;23.27;42.09
7180;BME280;3631;42.152;24.756;2022-11-02T10:44:40;99622.69;;;23.41;41.89
7180;BME280;3631;42.152;24.756;2022-11-02T10:47:14;99639.19;;;23.67;41.37
7180;BME280;3631;42.152;24.756;2022-11-02T10:50:11;99633.72;;;23.79;40.45
7180;BME280;3631;42.152;24.756;2022-11-02T10:52:41;99626.59;;;23.91;40.18
7180;BME280;3631;42.152;24.756;2022-11-02T10:55:18;99627.09;;;24.06;37.82
7180;BME280;3631;42.152;24.756;2022-11-02T10:57:47;99630.44;;;24.19;37.06
7180;BME280;3631;42.152;24.756;2022-11-02T11:00:24;99618.59;;;24.34;35.93
7180;BME280;3631;42.152;24.756;2022-11-02T11:03:05;99602.13;;;24.40;35.73
7180;BME280;3631;42.152;24.756;2022-11-02T11:05:34;99608.22;;;24.52;35.19
7180;BME280;3631;42.152;24.756;2022-11-02T11:08:03;99609.44;;;24.69;34.19
7180;BME280;3631;42.152;24.756;2022-11-02T11:10:35;99600.94;;;24.75;34.42
7180;BME280;3631;42.152;24.756;2022-11-02T11:13:04;99608.09;;;24.84;34.09
7180;BME280;3631;42.152;24.756;2022-11-02T11:15:33;99601.56;;;24.88;33.40
7180;BME280;3631;42.152;24.756;2022-11-02T11:18:10;99603.00;;;24.92;33.41
7180;BME280;3631;42.152;24.756;2022-11-02T11:20:39;99598.25;;;24.95;33.35
7180;BME280;3631;42.152;24.756;2022-11-02T11:23:15;99597.16;;;24.98;33.01
7180;BME280;3631;42.152;24.756;2022-11-02T11:25:53;99587.53;;;25.07;32.92
7180;BME280;3631;42.152;24.756;2022-11-02T11:28:23;99574.84;;;25.10;32.82
7180;BME280;3631;42.152;24.756;2022-11-02T11:31:09;99586.59;;;25.17;32.61
7180;BME280;3631;42.152;24.756;2022-11-02T11:33:46;99566.78;;;25.21;32.71
7180;BME280;3631;42.152;24.756;2022-11-02T11:36:22;99575.06;;;25.28;32.45
7180;BME280;3631;42.152;24.756;2022-11-02T11:38:50;99571.84;;;25.34;32.47
7180;BME280;3631;42.152;24.756;2022-11-02T11:41:18;99571.28;;;25.40;32.20
7180;BME280;3631;42.152;24.756;2022-11-02T11:43:46;99569.34;;;25.42;32.37
7180;BME280;3631;42.152;24.756;2022-11-02T11:46:16;99559.00;;;25.49;32.22
7180;BME280;3631;42.152;24.756;2022-11-02T11:48:45;99553.25;;;25.53;32.25
7180;BME280;3631;42.152;24.756;2022-11-02T11:51:25;99557.09;;;25.60;32.44
7180;BME280;3631;42.152;24.756;2022-11-02T11:54:15;99548.25;;;25.60;32.62
7180;BME280;3631;42.152;24.756;2022-11-02T11:56:43;99544.03;;;25.57;32.44
7180;BME280;3631;42.152;24.756;2022-11-02T11:59:22;99537.63;;;25.60;31.76
7180;BME280;3631;42.152;24.756;2022-11-02T12:01:55;99542.94;;;25.60;32.26
7180;BME280;3631;42.152;24.756;2022-11-02T12:04:33;99534.00;;;25.61;32.15
7180;BME280;3631;42.152;24.756;2022-11-02T12:10:08;99519.88;;;25.60;31.99
7180;BME280;3631;42.152;24.756;2022-11-02T12:12:50;99522.09;;;25.65;31.77
7180;BME280;3631;42.152;24.756;2022-11-02T12:15:29;99514.84;;;25.67;31.61
7180;BME280;3631;42.152;24.756;2022-11-02T12:18:10;99512.59;;;25.72;31.67
7180;BME280;3631;42.152;24.756;2022-11-02T12:20:54;99510.50;;;25.76;32.15
7180;BME280;3631;42.152;24.756;2022-11-02T12:23:39;99513.69;;;25.89;31.42
7180;BME280;3631;42.152;24.756;2022-11-02T12:26:20;99513.28;;;25.93;30.25
7180;BME280;3631;42.152;24.756;2022-11-02T12:29:01;99509.78;;;26.02;30.83
7180;BME280;3631;42.152;24.756;2022-11-02T12:31:36;99505.69;;;26.08;30.24
7180;BME280;3631;42.152;24.756;2022-11-02T12:34:29;99495.50;;;26.03;30.35
7180;BME280;3631;42.152;24.756;2022-11-02T12:37:04;99500.22;;;26.10;29.32
7180;BME280;3631;42.152;24.756;2022-11-02T12:39:45;99496.31;;;26.14;28.49
7180;BME280;3631;42.152;24.756;2022-11-02T12:42:25;99498.00;;;26.15;27.57
7180;BME280;3631;42.152;24.756;2022-11-02T12:45:01;99491.84;;;26.14;27.71
7180;BME280;3631;42.152;24.756;2022-11-02T12:47:41;99484.69;;;26.15;27.92
7180;BME280;3631;42.152;24.756;2022-11-02T12:50:18;99490.00;;;26.15;28.43
7180;BME280;3631;42.152;24.756;2022-11-02T12:53:01;99490.72;;;26.17;28.78
7180;BME280;3631;42.152;24.756;2022-11-02T12:55:32;99485.94;;;26.11;27.13
7180;BME280;3631;42.152;24.756;2022-11-02T12:58:05;99486.53;;;26.04;26.40
7180;BME280;3631;42.152;24.756;2022-11-02T13:00:36;99481.91;;;26.07;25.24
7180;BME280;3631;42.152;24.756;2022-11-02T13:03:18;99480.78;;;25.99;25.20
7180;BME280;3631;42.152;24.756;2022-11-02T13:05:53;99473.66;;;26.00;25.89
7180;BME280;3631;42.152;24.756;2022-11-02T13:08:33;99484.56;;;26.07;24.42
7180;BME280;3631;42.152;24.756;2022-11-02T13:11:06;99486.09;;;26.09;24.99
7180;BME280;3631;42.152;24.756;2022-11-02T13:13:38;99479.41;;;26.05;25.34
7180;BME280;3631;42.152;24.756;2022-11-02T13:16:08;99473.38;;;26.03;24.39
7180;BME280;3631;42.152;24.756;2022-11-02T13:18:42;99477.97;;;26.11;24.49
7180;BME280;3631;42.152;24.756;2022-11-02T13:21:14;99477.69;;;26.14;24.36
7180;BME280;3631;42.152;24.756;2022-11-02T13:23:49;99469.97;;;26.11;25.62
7180;BME280;3631;42.152;24.756;2022-11-02T13:26:25;99469.47;;;26.07;25.10
7180;BME280;3631;42.152;24.756;2022-11-02T13:28:58;99469.16;;;26.10;25.07
7180;BME280;3631;42.152;24.756;2022-11-02T13:31:33;99477.44;;;26.07;25.25
7180;BME280;3631;42.152;24.756;2022-11-02T13:34:03;99476.28;;;26.10;25.47